createdAt,value
2023-01-15T00:00:05.924Z,99669.22
2023-01-15T00:02:33.920Z,99673.34
2023-01-15T00:05:03.241Z,99653.34
2023-01-15T00:07:31.448Z,99650.94
2023-01-15T00:09:59.442Z,99664.25
2023-01-15T00:12:27.290Z,99643.69
2023-01-15T00:14:58.240Z,99649.78
2023-01-15T00:17:26.711Z,99646.63
2023-01-15T00:19:54.674Z,99646.69
2023-01-15T00:22:22.579Z,99648.75
2023-01-15T00:25:07.881Z,99648.88
2023-01-15T00:27:44.039Z,99642.22
2023-01-15T00:30:16.042Z,99650.59
2023-01-15T00:32:45.223Z,99627.03
2023-01-15T00:35:14.701Z,99649.00
2023-01-15T00:37:44.312Z,99645.88
2023-01-15T00:40:13.604Z,99647.56
2023-01-15T00:42:41.713Z,99649.28
2023-01-15T00:45:11.709Z,99639.34
2023-01-15T00:47:42.626Z,99642.88
2023-01-15T00:50:13.222Z,99643.78
2023-01-15T00:52:41.797Z,99635.56
2023-01-15T00:55:10.309Z,99643.13
2023-01-15T00:57:38.190Z,99642.47
2023-01-15T01:00:07.137Z,99629.19
2023-01-15T01:02:35.144Z,99620.94
2023-01-15T01:05:06.471Z,99627.63
2023-01-15T01:07:34.289Z,99618.47
2023-01-15T01:10:02.072Z,99602.06
2023-01-15T01:12:29.944Z,99615.41
2023-01-15T01:14:57.770Z,99600.47
2023-01-15T01:17:25.729Z,99607.28
2023-01-15T01:19:53.585Z,99599.97
2023-01-15T01:22:22.917Z,99596.63
2023-01-15T01:24:50.747Z,99570.66
2023-01-15T01:27:19.483Z,99575.91
2023-01-15T01:29:47.454Z,99590.06
2023-01-15T01:32:15.286Z,99576.00
2023-01-15T01:34:43.495Z,99592.53
2023-01-15T01:37:12.480Z,99588.25
2023-01-15T01:39:42.265Z,99585.84
2023-01-15T01:42:14.308Z,99586.69
2023-01-15T01:45:03.034Z,99576.00
2023-01-15T01:47:34.105Z,99569.34
2023-01-15T01:50:07.942Z,99581.03
2023-01-15T01:52:42.761Z,99557.59
2023-01-15T01:55:14.867Z,99567.53
2023-01-15T01:57:43.962Z,99560.91
2023-01-15T02:00:15.223Z,99557.59
2023-01-15T02:02:45.311Z,99555.09
2023-01-15T02:05:17.542Z,99540.84
2023-01-15T02:07:46.098Z,99542.53
2023-01-15T02:10:17.356Z,99540.78
2023-01-15T02:12:51.571Z,99522.53
2023-01-15T02:15:27.969Z,99506.06
2023-01-15T02:17:59.657Z,99518.69
2023-01-15T02:20:33.501Z,99519.53
2023-01-15T02:23:51.271Z,99503.78
2023-01-15T02:29:25.271Z,99475.00
2023-01-15T02:31:53.951Z,99497.28
2023-01-15T02:34:28.491Z,99480.38
2023-01-15T02:37:03.725Z,99476.25
2023-01-15T02:39:36.498Z,99482.00
2023-01-15T02:42:06.819Z,99484.34
2023-01-15T02:44:47.027Z,99483.16
2023-01-15T02:47:18.469Z,99504.25
2023-01-15T02:49:48.878Z,99507.69
2023-01-15T02:52:25.478Z,99503.78
2023-01-15T02:55:01.556Z,99494.69
2023-01-15T02:57:36.251Z,99494.69
2023-01-15T03:00:12.000Z,99489.59
2023-01-15T03:02:45.724Z,99492.72
2023-01-15T03:05:20.524Z,99496.00
2023-01-15T03:07:52.883Z,99476.00
2023-01-15T03:10:27.710Z,99477.03
2023-01-15T03:13:04.019Z,99466.91
2023-01-15T03:16:09.581Z,99457.81
2023-01-15T03:18:51.337Z,99466.06
2023-01-15T03:21:25.409Z,99463.44
2023-01-15T03:23:57.156Z,99458.47
2023-01-15T03:26:28.379Z,99457.63
2023-01-15T03:29:01.930Z,99459.28
2023-01-15T03:31:31.460Z,99445.84
2023-01-15T03:34:00.315Z,99460.88
2023-01-15T03:36:28.819Z,99461.09
2023-01-15T03:39:02.160Z,99453.69
2023-01-15T03:41:56.141Z,99456.97
2023-01-15T03:44:33.751Z,99453.63
2023-01-15T03:47:17.905Z,99446.19
2023-01-15T03:49:54.849Z,99432.63
2023-01-15T03:52:34.447Z,99437.81
2023-01-15T03:55:12.817Z,99442.19
2023-01-15T03:57:47.846Z,99440.53
2023-01-15T04:00:22.221Z,99438.84
2023-01-15T04:02:57.429Z,99437.22
2023-01-15T04:05:29.616Z,99436.25
2023-01-15T04:08:00.617Z,99430.31
2023-01-15T04:10:30.663Z,99428.63
2023-01-15T04:13:00.257Z,99407.84
2023-01-15T04:15:28.240Z,99416.88
2023-01-15T04:17:57.513Z,99419.22
2023-01-15T04:20:28.100Z,99415.78
2023-01-15T04:22:56.038Z,99402.44
2023-01-15T04:25:23.889Z,99421.53
2023-01-15T04:27:54.466Z,99407.28
2023-01-15T04:30:22.529Z,99415.53
2023-01-15T04:32:50.971Z,99410.56
2023-01-15T04:35:20.872Z,99402.31
2023-01-15T04:37:48.931Z,99400.63
2023-01-15T04:40:31.069Z,99388.22
2023-01-15T04:43:16.334Z,99385.69
2023-01-15T04:45:44.708Z,99382.34
2023-01-15T04:48:12.955Z,99377.41
2023-01-15T04:50:42.261Z,99362.44
2023-01-15T04:53:10.074Z,99367.34
2023-01-15T04:55:37.968Z,99343.94
2023-01-15T04:58:05.921Z,99359.75
2023-01-15T05:00:33.793Z,99350.50
2023-01-15T05:03:01.695Z,99331.47
2023-01-15T05:05:29.578Z,99343.94
2023-01-15T05:07:58.855Z,99332.19
2023-01-15T05:10:26.728Z,99348.78
2023-01-15T05:12:54.638Z,99344.63
2023-01-15T05:15:22.447Z,99337.16
2023-01-15T05:17:50.274Z,99337.28
2023-01-15T05:20:18.465Z,99332.25
2023-01-15T05:22:46.358Z,99340.56
2023-01-15T05:25:15.731Z,99333.91
2023-01-15T05:27:43.660Z,99323.97
2023-01-15T05:30:12.836Z,99318.09
2023-01-15T05:32:40.696Z,99321.22
2023-01-15T05:35:09.181Z,99328.59
2023-01-15T05:37:37.107Z,99325.06
2023-01-15T05:40:05.606Z,99317.50
2023-01-15T05:42:34.785Z,99317.38
2023-01-15T05:45:02.594Z,99295.47
2023-01-15T05:47:30.381Z,99319.25
2023-01-15T05:49:58.182Z,99304.38
2023-01-15T05:52:25.992Z,99308.47
2023-01-15T05:54:53.834Z,99301.88
2023-01-15T05:57:21.666Z,99301.03
2023-01-15T05:59:53.319Z,99300.25
2023-01-15T06:02:21.418Z,99303.59
2023-01-15T06:04:49.308Z,99304.31
2023-01-15T06:07:18.060Z,99307.69
2023-01-15T06:09:46.165Z,99295.94
2023-01-15T06:12:14.093Z,99295.88
2023-01-15T06:14:42.120Z,99286.81
2023-01-15T06:17:11.512Z,99286.81
2023-01-15T06:19:39.512Z,99289.22
2023-01-15T06:22:09.613Z,99281.84
2023-01-15T06:24:38.795Z,99281.00
2023-01-15T06:27:06.632Z,99286.00
2023-01-15T06:29:34.515Z,99300.00
2023-01-15T06:32:02.434Z,99284.97
2023-01-15T06:34:31.933Z,99293.22
2023-01-15T06:36:59.774Z,99294.81
2023-01-15T06:39:27.831Z,99288.94
2023-01-15T06:42:13.031Z,99287.25
2023-01-15T06:44:58.404Z,99287.25
2023-01-15T06:47:26.261Z,99284.78
2023-01-15T06:49:57.634Z,99298.81
2023-01-15T06:52:26.888Z,99285.63
2023-01-15T06:54:55.167Z,99293.97
2023-01-15T06:57:23.195Z,99295.69
2023-01-15T06:59:51.938Z,99293.22
2023-01-15T07:02:21.667Z,99283.28
2023-01-15T07:04:49.923Z,99288.25
2023-01-15T07:07:20.776Z,99274.97
2023-01-15T07:09:48.924Z,99282.56
2023-01-15T07:12:17.225Z,99284.97
2023-01-15T07:14:45.264Z,99296.59
2023-01-15T07:17:13.300Z,99291.03
2023-01-15T07:19:41.354Z,99290.31
2023-01-15T07:22:11.479Z,99288.94
2023-01-15T07:24:40.790Z,99291.41
2023-01-15T07:27:08.746Z,99284.75
2023-01-15T07:29:36.643Z,99293.91
2023-01-15T07:32:04.874Z,99296.31
2023-01-15T07:34:32.732Z,99300.59
2023-01-15T07:37:00.608Z,99299.06
2023-01-15T07:39:28.520Z,99296.59
2023-01-15T07:42:15.200Z,99288.34
2023-01-15T07:45:00.564Z,99291.56
2023-01-15T07:47:46.539Z,99280.00
2023-01-15T07:50:18.098Z,99294.28
2023-01-15T07:52:46.429Z,99296.09
2023-01-15T07:55:14.757Z,99293.63
2023-01-15T07:57:44.498Z,99301.06
2023-01-15T08:00:15.890Z,99282.84
2023-01-15T08:02:44.370Z,99296.09
2023-01-15T08:05:12.915Z,99273.88
2023-01-15T08:07:42.029Z,99276.44
2023-01-15T08:10:12.190Z,99274.88
2023-01-15T08:12:57.784Z,99272.38
2023-01-15T08:15:27.591Z,99266.75
2023-01-15T08:17:55.415Z,99275.91
2023-01-15T08:20:25.537Z,99276.13
2023-01-15T08:22:54.222Z,99266.97
2023-01-15T08:25:23.720Z,99277.19
2023-01-15T08:27:51.682Z,99266.63
2023-01-15T08:30:22.373Z,99259.28
2023-01-15T08:32:51.715Z,99258.44
2023-01-15T08:35:19.687Z,99250.19
2023-01-15T08:37:52.393Z,99245.97
2023-01-15T08:40:20.509Z,99259.53
2023-01-15T08:42:48.482Z,99261.28
2023-01-15T08:45:16.570Z,99267.97
2023-01-15T08:47:44.390Z,99258.03
2023-01-15T08:50:13.774Z,99270.63
2023-01-15T08:52:42.034Z,99274.78
2023-01-15T08:55:10.168Z,99276.50
2023-01-15T08:57:38.735Z,99283.41
2023-01-15T09:00:08.455Z,99286.91
2023-01-15T09:02:36.293Z,99287.88
2023-01-15T09:05:04.358Z,99284.81
2023-01-15T09:07:35.244Z,99284.25
2023-01-15T09:10:04.323Z,99283.88
2023-01-15T09:12:32.581Z,99286.69
2023-01-15T09:15:03.148Z,99281.13
2023-01-15T09:17:33.613Z,99278.72
2023-01-15T09:20:02.989Z,99274.06
2023-01-15T09:22:31.347Z,99275.06
2023-01-15T09:25:00.963Z,99270.25
2023-01-15T09:27:29.601Z,99272.75
2023-01-15T09:29:57.851Z,99264.38
2023-01-15T09:32:25.772Z,99268.75
2023-01-15T09:34:53.637Z,99262.09
2023-01-15T09:37:21.497Z,99249.66
2023-01-15T09:39:49.406Z,99264.94
2023-01-15T09:42:38.390Z,99269.44
2023-01-15T09:45:21.443Z,99265.63
2023-01-15T09:48:00.929Z,99235.38
2023-01-15T09:50:43.155Z,99263.31
2023-01-15T09:53:41.819Z,99271.84
2023-01-15T09:56:17.589Z,99274.97
2023-01-15T09:58:47.372Z,99277.56
2023-01-15T10:01:18.096Z,99255.75
2023-01-15T10:03:52.138Z,99256.56
2023-01-15T10:06:25.138Z,99253.91
2023-01-15T10:09:02.935Z,99275.31
2023-01-15T10:11:55.049Z,99267.84
2023-01-15T10:14:39.167Z,99256.88
2023-01-15T10:17:20.471Z,99248.56
2023-01-15T10:19:48.456Z,99237.03
2023-01-15T10:22:32.584Z,99235.47
2023-01-15T10:25:06.619Z,99222.31
2023-01-15T10:27:36.484Z,99226.38
2023-01-15T10:30:16.168Z,99219.53
2023-01-15T10:33:01.461Z,99213.56
2023-01-15T10:35:42.365Z,99211.72
2023-01-15T10:38:21.412Z,99201.56
2023-01-15T10:41:26.325Z,99178.38
2023-01-15T10:44:01.437Z,99166.16
2023-01-15T10:46:38.002Z,99151.13
2023-01-15T10:49:13.437Z,99149.25
2023-01-15T10:51:46.005Z,99105.59
2023-01-15T10:54:23.327Z,99116.69
2023-01-15T10:57:01.863Z,99110.28
2023-01-15T10:59:40.815Z,99125.19
2023-01-15T11:02:25.890Z,99113.69
2023-01-15T11:04:54.357Z,99116.19
2023-01-15T11:07:25.372Z,99108.16
2023-01-15T11:09:53.202Z,99100.84
2023-01-15T11:12:41.793Z,99104.03
2023-01-15T11:15:42.611Z,99115.69
2023-01-15T11:18:38.869Z,99104.88
2023-01-15T11:21:13.343Z,99106.28
2023-01-15T11:23:41.352Z,99110.47
2023-01-15T11:26:10.420Z,99106.28
2023-01-15T11:28:41.462Z,99121.88
2023-01-15T11:31:10.723Z,99118.44
2023-01-15T11:33:40.952Z,99110.19
2023-01-15T11:36:21.701Z,99104.34
2023-01-15T11:38:51.697Z,99109.38
2023-01-15T11:41:45.473Z,99100.91
2023-01-15T11:44:32.173Z,99083.59
2023-01-15T11:47:18.100Z,99092.66
2023-01-15T11:50:10.064Z,99087.56
2023-01-15T11:52:40.665Z,99085.03
2023-01-15T11:55:14.101Z,99077.44
2023-01-15T11:57:42.920Z,99074.91
2023-01-15T12:00:22.661Z,99067.47
2023-01-15T12:02:52.847Z,99065.03
2023-01-15T12:05:25.507Z,99059.25
2023-01-15T12:07:56.632Z,99048.59
2023-01-15T12:10:54.116Z,99067.81
2023-01-15T12:13:31.763Z,99072.03
2023-01-15T12:16:08.360Z,99067.88
2023-01-15T12:18:57.010Z,99060.59
2023-01-15T12:21:44.390Z,99059.03
2023-01-15T12:24:26.046Z,99067.44
2023-01-15T12:27:07.793Z,99065.00
2023-01-15T12:29:41.105Z,99065.75
2023-01-15T12:32:15.790Z,99059.16
2023-01-15T12:34:50.986Z,99068.34
2023-01-15T12:37:24.229Z,99072.66
2023-01-15T12:39:58.678Z,99054.25
2023-01-15T12:42:46.499Z,99046.88
2023-01-15T12:45:18.256Z,99038.41
2023-01-15T12:47:55.076Z,99049.41
2023-01-15T12:50:39.238Z,99041.09
2023-01-15T12:53:16.776Z,99037.72
2023-01-15T12:55:50.416Z,99039.41
2023-01-15T12:58:32.252Z,99037.72
2023-01-15T13:01:07.945Z,99024.31
2023-01-15T13:03:49.104Z,99021.00
2023-01-15T13:06:18.961Z,99016.09
2023-01-15T13:08:55.926Z,99001.94
2023-01-15T13:11:23.860Z,99001.94
2023-01-15T13:13:58.963Z,98996.09
2023-01-15T13:16:42.241Z,98998.53
2023-01-15T13:19:24.018Z,98994.28
2023-01-15T13:21:53.119Z,98993.38
2023-01-15T13:24:53.788Z,98989.97
2023-01-15T13:27:35.255Z,98980.75
2023-01-15T13:30:16.559Z,98987.28
2023-01-15T13:32:49.391Z,98988.97
2023-01-15T13:35:28.581Z,98975.56
2023-01-15T13:37:59.106Z,98966.94
2023-01-15T13:40:34.716Z,98995.38
2023-01-15T13:43:05.490Z,98985.41
2023-01-15T13:45:37.962Z,98992.09
2023-01-15T13:48:09.731Z,98994.47
2023-01-15T13:50:44.255Z,98996.13
2023-01-15T13:53:21.826Z,98993.59
2023-01-15T13:55:55.067Z,99000.16
2023-01-15T13:58:26.927Z,98981.63
2023-01-15T14:01:08.965Z,98983.44
2023-01-15T14:03:38.879Z,99000.91
2023-01-15T14:06:08.959Z,99000.00
2023-01-15T14:08:42.364Z,98987.47
2023-01-15T14:11:35.917Z,98993.25
2023-01-15T14:14:35.744Z,98983.13
2023-01-15T14:17:21.454Z,98993.22
2023-01-15T14:20:09.401Z,98994.84
2023-01-15T14:22:52.234Z,98998.94
2023-01-15T14:25:32.662Z,98986.50
2023-01-15T14:28:22.207Z,98978.16
2023-01-15T14:31:10.292Z,98975.59
2023-01-15T14:33:54.774Z,98966.50
2023-01-15T14:36:28.412Z,98961.53
2023-01-15T14:38:59.272Z,98951.50
2023-01-15T14:41:29.492Z,98935.63
2023-01-15T14:44:00.775Z,98927.13
2023-01-15T14:46:34.161Z,98913.91
2023-01-15T14:49:03.013Z,98910.56
2023-01-15T14:51:34.032Z,98901.97
2023-01-15T14:54:05.035Z,98913.66
2023-01-15T14:56:37.059Z,98907.81
2023-01-15T14:59:16.357Z,98916.25
2023-01-15T15:01:46.746Z,98920.44
2023-01-15T15:04:22.337Z,98919.63
2023-01-15T15:06:53.900Z,98932.06
2023-01-15T15:09:37.406Z,98926.09
2023-01-15T15:12:25.417Z,98920.38
2023-01-15T15:15:04.455Z,98924.50
2023-01-15T15:17:40.518Z,98926.19
2023-01-15T15:20:19.992Z,98921.31
2023-01-15T15:22:50.285Z,98925.50
2023-01-15T15:25:22.852Z,98930.50
2023-01-15T15:27:50.863Z,98927.13
2023-01-15T15:30:21.090Z,98928.59
2023-01-15T15:32:49.041Z,98938.50
2023-01-15T15:35:27.589Z,98930.16
2023-01-15T15:37:56.428Z,98917.69
2023-01-15T15:40:31.513Z,98921.13
2023-01-15T15:43:23.851Z,98919.53
2023-01-15T15:46:12.415Z,98918.56
2023-01-15T15:48:45.107Z,98924.41
2023-01-15T15:51:30.706Z,98925.25
2023-01-15T15:54:17.011Z,98936.78
2023-01-15T15:56:49.356Z,98919.09
2023-01-15T15:59:29.259Z,98935.16
2023-01-15T16:02:01.282Z,98929.38
2023-01-15T16:04:29.553Z,98949.38
2023-01-15T16:06:57.517Z,98947.78
2023-01-15T16:09:26.026Z,98917.47
2023-01-15T16:12:07.227Z,98947.78
2023-01-15T16:14:37.175Z,98956.09
2023-01-15T16:17:06.860Z,98949.47
2023-01-15T16:19:34.886Z,98952.78
2023-01-15T16:22:03.198Z,98967.75
2023-01-15T16:24:30.999Z,98964.38
2023-01-15T16:27:02.708Z,98962.69
2023-01-15T16:29:35.543Z,98979.34
2023-01-15T16:32:13.224Z,98978.56
2023-01-15T16:34:41.619Z,98979.41
2023-01-15T16:37:26.322Z,98985.25
2023-01-15T16:39:54.540Z,98984.47
2023-01-15T16:42:28.856Z,98991.78
2023-01-15T16:45:01.052Z,98986.66
2023-01-15T16:47:34.171Z,98994.13
2023-01-15T16:50:29.107Z,99010.72
2023-01-15T16:53:00.380Z,99012.34
2023-01-15T16:55:40.229Z,98998.84
2023-01-15T16:58:23.196Z,99005.50
2023-01-15T17:00:53.345Z,99022.97
2023-01-15T17:03:24.393Z,99024.41
2023-01-15T17:05:55.222Z,99043.50
2023-01-15T17:08:28.278Z,99024.03
2023-01-15T17:10:58.844Z,99046.56
2023-01-15T17:13:34.169Z,99044.03
2023-01-15T17:16:05.609Z,99042.28
2023-01-15T17:18:34.976Z,99048.00
2023-01-15T17:21:03.090Z,99048.94
2023-01-15T17:23:36.163Z,99046.31
2023-01-15T17:26:05.284Z,99045.31
2023-01-15T17:28:33.276Z,99019.94
2023-01-15T17:31:03.078Z,99052.06
2023-01-15T17:33:31.063Z,99051.22
2023-01-15T17:36:01.411Z,99050.31
2023-01-15T17:38:29.429Z,99048.75
2023-01-15T17:41:00.392Z,99043.81
2023-01-15T17:43:28.405Z,99044.56
2023-01-15T17:45:56.291Z,99037.09
2023-01-15T17:48:24.183Z,99041.22
2023-01-15T17:50:52.023Z,99039.53
2023-01-15T17:53:21.278Z,99036.16
2023-01-15T17:56:06.671Z,99036.91
2023-01-15T17:58:51.919Z,99036.06
2023-01-15T18:01:40.191Z,99032.72
2023-01-15T18:04:35.229Z,99031.84
2023-01-15T18:07:03.920Z,99042.91
2023-01-15T18:09:34.718Z,99040.22
2023-01-15T18:12:02.796Z,99031.78
2023-01-15T18:14:30.649Z,99032.63
2023-01-15T18:16:58.734Z,99037.66
2023-01-15T18:19:26.547Z,99029.28
2023-01-15T18:21:54.444Z,99021.03
2023-01-15T18:24:23.727Z,99021.16
2023-01-15T18:26:53.066Z,99027.81
2023-01-15T18:29:21.274Z,99030.34
2023-01-15T18:31:49.611Z,99022.09
2023-01-15T18:34:20.076Z,99016.28
2023-01-15T18:36:48.007Z,99014.63
2023-01-15T18:39:15.877Z,99010.47
2023-01-15T18:42:01.082Z,99003.53
2023-01-15T18:44:47.823Z,99013.00
2023-01-15T18:47:17.628Z,99017.16
2023-01-15T18:49:47.171Z,99028.00
2023-01-15T18:52:34.178Z,99021.44
2023-01-15T18:55:02.116Z,99029.69
2023-01-15T18:57:29.967Z,99027.63
2023-01-15T18:59:59.223Z,99028.69
2023-01-15T19:02:27.113Z,99034.97
2023-01-15T19:04:55.055Z,99028.31
2023-01-15T19:07:23.028Z,99045.66
2023-01-15T19:09:50.872Z,99045.31
2023-01-15T19:12:19.843Z,99047.34
2023-01-15T19:15:05.412Z,99052.44
2023-01-15T19:17:52.550Z,99060.19
2023-01-15T19:20:21.351Z,99054.44
2023-01-15T19:23:05.015Z,99068.06
2023-01-15T19:25:38.039Z,99068.44
2023-01-15T19:28:07.132Z,99066.69
2023-01-15T19:30:35.614Z,99071.97
2023-01-15T19:33:05.266Z,99073.56
2023-01-15T19:35:35.176Z,99069.75
2023-01-15T19:38:03.258Z,99080.53
2023-01-15T19:40:36.304Z,99069.56
2023-01-15T19:43:22.259Z,99062.44
2023-01-15T19:46:07.437Z,99062.50
2023-01-15T19:48:54.091Z,99071.88
2023-01-15T19:51:22.095Z,99057.22
2023-01-15T19:53:50.127Z,99060.59
2023-01-15T19:56:17.948Z,99071.56
2023-01-15T19:58:45.857Z,99073.03
2023-01-15T20:01:17.476Z,99070.41
2023-01-15T20:03:47.203Z,99074.66
2023-01-15T20:06:15.047Z,99060.56
2023-01-15T20:08:42.993Z,99057.19
2023-01-15T20:11:10.937Z,99061.31
2023-01-15T20:13:51.997Z,99057.28
2023-01-15T20:16:22.716Z,99050.00
2023-01-15T20:18:53.253Z,99052.53
2023-01-15T20:21:21.131Z,99059.53
2023-01-15T20:23:48.955Z,99048.19
2023-01-15T20:26:18.099Z,99045.13
2023-01-15T20:28:47.588Z,99055.44
2023-01-15T20:31:17.172Z,99053.84
2023-01-15T20:33:45.233Z,99044.81
2023-01-15T20:36:14.490Z,99044.78
2023-01-15T20:38:42.405Z,99044.72
2023-01-15T20:41:29.150Z,99049.78
2023-01-15T20:44:14.630Z,99044.94
2023-01-15T20:46:42.597Z,99035.03
2023-01-15T20:49:24.951Z,99045.03
2023-01-15T20:51:54.755Z,99055.03
2023-01-15T20:54:23.113Z,99062.59
2023-01-15T20:56:51.033Z,99059.41
2023-01-15T20:59:18.892Z,99052.88
2023-01-15T21:01:46.826Z,99044.47
2023-01-15T21:04:14.844Z,99048.69
2023-01-15T21:06:42.862Z,99036.06
2023-01-15T21:09:12.193Z,99035.25
2023-01-15T21:11:40.106Z,99044.41
2023-01-15T21:14:07.897Z,99048.59
2023-01-15T21:16:35.754Z,99032.69
2023-01-15T21:19:04.867Z,99033.69
2023-01-15T21:21:32.872Z,99032.09
2023-01-15T21:24:01.182Z,99037.94
2023-01-15T21:26:30.959Z,99044.63
2023-01-15T21:28:58.883Z,99034.72
2023-01-15T21:31:26.781Z,99042.13
2023-01-15T21:33:55.727Z,99049.69
2023-01-15T21:36:24.515Z,99049.69
2023-01-15T21:38:53.433Z,99038.06
2023-01-15T21:41:43.917Z,99049.59
2023-01-15T21:44:31.590Z,99042.22
2023-01-15T21:46:59.956Z,99034.56
2023-01-15T21:49:28.555Z,99037.16
2023-01-15T21:51:56.710Z,99042.91
2023-01-15T21:54:24.712Z,99041.22
2023-01-15T21:56:52.564Z,99041.13
2023-01-15T21:59:22.253Z,99042.72
2023-01-15T22:01:50.353Z,99040.06
2023-01-15T22:04:20.606Z,99044.97
2023-01-15T22:06:48.501Z,99037.47
2023-01-15T22:09:17.498Z,99029.22
2023-01-15T22:11:45.854Z,99030.94
2023-01-15T22:14:15.200Z,99026.00
2023-01-15T22:16:45.615Z,99030.28
2023-01-15T22:19:19.480Z,99033.69
2023-01-15T22:21:48.896Z,99027.00
2023-01-15T22:24:16.966Z,99025.31
2023-01-15T22:26:49.111Z,99017.75
2023-01-15T22:29:16.949Z,99017.69
2023-01-15T22:31:46.184Z,99016.81
2023-01-15T22:34:14.227Z,99006.06
2023-01-15T22:36:42.060Z,99009.34
2023-01-15T22:39:10.268Z,98998.63
2023-01-15T22:41:55.777Z,99004.31
2023-01-15T22:44:23.610Z,98995.81
2023-01-15T22:46:54.066Z,98998.22
2023-01-15T22:49:22.547Z,99000.69
2023-01-15T22:51:51.311Z,98977.06
2023-01-15T22:54:19.799Z,98991.50
2023-01-15T22:56:48.223Z,98995.63
2023-01-15T22:59:16.880Z,98988.09
2023-01-15T23:01:44.750Z,98986.31
2023-01-15T23:04:16.714Z,98976.22
2023-01-15T23:06:45.256Z,98968.72
2023-01-15T23:09:13.856Z,98963.53
2023-01-15T23:11:41.783Z,98963.34
2023-01-15T23:14:12.364Z,98977.25
2023-01-15T23:16:40.282Z,98950.47
2023-01-15T23:19:08.107Z,98976.47
2023-01-15T23:21:39.684Z,98961.47
2023-01-15T23:24:08.098Z,98975.09
2023-01-15T23:26:36.228Z,98958.56
2023-01-15T23:29:04.646Z,98936.00
2023-01-15T23:31:32.617Z,98944.50
2023-01-15T23:34:00.618Z,98945.34
2023-01-15T23:36:29.132Z,98948.47
2023-01-15T23:38:58.327Z,98948.16
2023-01-15T23:41:40.392Z,98941.50
2023-01-15T23:44:32.419Z,98935.00
2023-01-15T23:47:00.428Z,98935.84
2023-01-15T23:49:28.461Z,98938.31
2023-01-15T23:51:56.601Z,98938.44
2023-01-15T23:54:28.885Z,98934.94
2023-01-15T23:56:57.434Z,98932.63
2023-01-15T23:59:25.358Z,98935.75
